Terminal Aerodrome Forecast
Issued by NWS

Home | Current Version | Previous Version | Text Only | Print | Product List | Glossary On
Versions: 1 2 3 4 5 6 7 8 9 10 11 12 13 14 15 16 17 18 19 20 21 22 23 24 25 26 27 28 29 30
000
FTUS45 KGJT 060219 AAB
TAFVEL
TAF AMD
KVEL 060219Z 0602/0624 07004KT P6SM -RA BKN070 BKN090
      TEMPO 0602/0605 P6SM NSW SCT070 BKN090
     FM060500 VRB03KT P6SM VCSH BKN100
     FM061600 15004KT P6SM SCT100 SCT200
     FM062000 19007KT P6SM SCT080 BKN120=

USA.gov is the U.S. government's official web portal to all federal, state and local government web resources and services.